^^
Station Historical Data
Daily Summary for April 9, 2019 Units:  Both    English   Metric
« Previous Day
Next Day »
Daily Weekly Monthly Yearly Custom
  High: Low: Average:
Temperature: 44.3 °F /  6.8 °C 27.6 °F /  -2.4 °C 36.5 °F /  2.5 °C
Dew Point: 32.4 °F /  0.2 °C 22.5 °F /  -5.3 °C 28.2 °F /  -2.1 °C
Humidity: 89% 49% 72%
Wind Speed: 20.0mph /  32.2km/h - 8.8mph /  14.2km/h
Wind Gust: 24.0mph /  38.6km/h - -
Wind- - SE
Pressure: 30.05 in /  1017.5 hPa 29.85 in /  1010.7 hPa -
Precipitation: 0.00 in /  0 mm    
Historical Graphs
 
 
Tabular Data for April 9, 2019
Time Temperature Dew Point Pressure Wind Wind Speed Wind Gust Humidity Rainfall Rate (Hourly) solar Conditions
00:04 44.3 °F /  6.8 °C 26.3 °F /  -3.2 °C 29.88in /  1011.7hPa NW 4.0mph /  6.4km/h 4.0mph /  6.4km/h 49% 0.00in /  0mm 0.00 W/m2
00:09 44.1 °F /  6.7 °C 26.1 °F /  -3.3 °C 29.88in /  1011.7hPa WNW 4.0mph /  6.4km/h 4.0mph /  6.4km/h 49% 0.00in /  0mm 0.00 W/m2
00:14 43.7 °F /  6.5 °C 26.3 °F /  -3.2 °C 29.88in /  1011.7hPa WNW 4.0mph /  6.4km/h 5.0mph /  8km/h 50% 0.00in /  0mm 0.00 W/m2
00:19 43.2 °F /  6.2 °C 25.8 °F /  -3.4 °C 29.88in /  1011.7hPa West 4.0mph /  6.4km/h 5.0mph /  8km/h 50% 0.00in /  0mm 0.00 W/m2
00:24 42.7 °F /  5.9 °C 25.8 °F /  -3.4 °C 29.88in /  1011.7hPa West 3.0mph /  4.8km/h 5.0mph /  8km/h 51% 0.00in /  0mm 0.00 W/m2
00:29 42.3 °F /  5.7 °C 25.9 °F /  -3.4 °C 29.88in /  1011.7hPa West 2.0mph /  3.2km/h 5.0mph /  8km/h 52% 0.00in /  0mm 0.00 W/m2
00:34 42.0 °F /  5.6 °C 26.1 °F /  -3.3 °C 29.87in /  1011.4hPa West 3.0mph /  4.8km/h 4.0mph /  6.4km/h 53% 0.00in /  0mm 0.00 W/m2
00:39 41.8 °F /  5.4 °C 25.9 °F /  -3.4 °C 29.87in /  1011.4hPa West 2.0mph /  3.2km/h 4.0mph /  6.4km/h 53% 0.00in /  0mm 0.00 W/m2
00:44 41.6 °F /  5.3 °C 25.7 °F /  -3.5 °C 29.88in /  1011.7hPa West 3.0mph /  4.8km/h 3.0mph /  4.8km/h 53% 0.00in /  0mm 0.00 W/m2
00:49 41.5 °F /  5.3 °C 26.1 °F /  -3.3 °C 29.88in /  1011.7hPa WSW 4.0mph /  6.4km/h 4.0mph /  6.4km/h 54% 0.00in /  0mm 0.00 W/m2
00:54 41.3 °F /  5.2 °C 25.9 °F /  -3.4 °C 29.88in /  1011.7hPa WSW 4.0mph /  6.4km/h 4.0mph /  6.4km/h 54% 0.00in /  0mm 0.00 W/m2
00:59 41.1 °F /  5.1 °C 25.7 °F /  -3.5 °C 29.88in /  1011.7hPa WSW 4.0mph /  6.4km/h 4.0mph /  6.4km/h 54% 0.00in /  0mm 0.00 W/m2
01:04 40.9 °F /  4.9 °C 26.0 °F /  -3.3 °C 29.88in /  1011.7hPa WSW 3.0mph /  4.8km/h 4.0mph /  6.4km/h 55% 0.00in /  0mm 0.00 W/m2
01:09 40.9 °F /  4.9 °C 26.0 °F /  -3.3 °C 29.88in /  1011.7hPa WSW 3.0mph /  4.8km/h 4.0mph /  6.4km/h 55% 0.00in /  0mm 0.00 W/m2
01:14 41.1 °F /  5.1 °C 26.1 °F /  -3.3 °C 29.88in /  1011.7hPa WSW 3.0mph /  4.8km/h 3.0mph /  4.8km/h 55% 0.00in /  0mm 0.00 W/m2
01:19 41.3 °F /  5.2 °C 26.3 °F /  -3.2 °C 29.88in /  1011.7hPa West 4.0mph /  6.4km/h 4.0mph /  6.4km/h 55% 0.00in /  0mm 0.00 W/m2
01:24 41.3 °F /  5.2 °C 25.9 °F /  -3.4 °C 29.88in /  1011.7hPa West 3.0mph /  4.8km/h 4.0mph /  6.4km/h 54% 0.00in /  0mm 0.00 W/m2
01:29 41.3 °F /  5.2 °C 25.9 °F /  -3.4 °C 29.88in /  1011.7hPa West 2.0mph /  3.2km/h 4.0mph /  6.4km/h 54% 0.00in /  0mm 0.00 W/m2
01:34 41.0 °F /  5 °C 26.1 °F /  -3.3 °C 29.88in /  1011.7hPa West 2.0mph /  3.2km/h 3.0mph /  4.8km/h 55% 0.00in /  0mm 0.00 W/m2
01:39 40.9 °F /  4.9 °C 26.0 °F /  -3.3 °C 29.88in /  1011.7hPa West 3.0mph /  4.8km/h 3.0mph /  4.8km/h 55% 0.00in /  0mm 0.00 W/m2
01:44 40.8 °F /  4.9 °C 26.3 °F /  -3.2 °C 29.88in /  1011.7hPa West 3.0mph /  4.8km/h 3.0mph /  4.8km/h 56% 0.00in /  0mm 0.00 W/m2
01:49 40.7 °F /  4.8 °C 26.2 °F /  -3.2 °C 29.88in /  1011.7hPa West 2.0mph /  3.2km/h 3.0mph /  4.8km/h 56% 0.00in /  0mm 0.00 W/m2
01:54 40.7 °F /  4.8 °C 26.2 °F /  -3.2 °C 29.88in /  1011.7hPa West 2.0mph /  3.2km/h 3.0mph /  4.8km/h 56% 0.00in /  0mm 0.00 W/m2
01:59 40.8 °F /  4.9 °C 26.3 °F /  -3.2 °C 29.88in /  1011.7hPa West 3.0mph /  4.8km/h 3.0mph /  4.8km/h 56% 0.00in /  0mm 0.00 W/m2
02:04 41.1 °F /  5.1 °C 26.6 °F /  -3 °C 29.88in /  1011.7hPa West 3.0mph /  4.8km/h 3.0mph /  4.8km/h 56% 0.00in /  0mm 0.00 W/m2
02:09 41.1 °F /  5.1 °C 26.6 °F /  -3 °C 29.88in /  1011.7hPa West 2.0mph /  3.2km/h 3.0mph /  4.8km/h 56% 0.00in /  0mm 0.00 W/m2
02:14 41.2 °F /  5.1 °C 26.2 °F /  -3.2 °C 29.88in /  1011.7hPa West 3.0mph /  4.8km/h 4.0mph /  6.4km/h 55% 0.00in /  0mm 0.00 W/m2
02:19 41.1 °F /  5.1 °C 26.6 °F /  -3 °C 29.88in /  1011.7hPa West 3.0mph /  4.8km/h 4.0mph /  6.4km/h 56% 0.00in /  0mm 0.00 W/m2
02:24 41.0 °F /  5 °C 26.5 °F /  -3.1 °C 29.87in /  1011.4hPa West 3.0mph /  4.8km/h 3.0mph /  4.8km/h 56% 0.00in /  0mm 0.00 W/m2
02:29 40.9 °F /  4.9 °C 26.4 °F /  -3.1 °C 29.88in /  1011.7hPa West 2.0mph /  3.2km/h 3.0mph /  4.8km/h 56% 0.00in /  0mm 0.00 W/m2
02:34 40.9 °F /  4.9 °C 26.4 °F /  -3.1 °C 29.87in /  1011.4hPa West 2.0mph /  3.2km/h 3.0mph /  4.8km/h 56% 0.00in /  0mm 0.00 W/m2
02:39 40.6 °F /  4.8 °C 26.1 °F /  -3.3 °C 29.87in /  1011.4hPa West 2.0mph /  3.2km/h 3.0mph /  4.8km/h 56% 0.00in /  0mm 0.00 W/m2
02:44 40.2 °F /  4.6 °C 26.2 °F /  -3.2 °C 29.87in /  1011.4hPa West 2.0mph /  3.2km/h 3.0mph /  4.8km/h 57% 0.00in /  0mm 0.00 W/m2
02:49 39.7 °F /  4.3 °C 26.1 °F /  -3.3 °C 29.87in /  1011.4hPa West 3.0mph /  4.8km/h 3.0mph /  4.8km/h 58% 0.00in /  0mm 0.00 W/m2
02:54 39.3 °F /  4.1 °C 25.7 °F /  -3.5 °C 29.87in /  1011.4hPa West 3.0mph /  4.8km/h 4.0mph /  6.4km/h 58% 0.00in /  0mm 0.00 W/m2
02:59 39.1 °F /  3.9 °C 26.0 °F /  -3.3 °C 29.87in /  1011.4hPa West 4.0mph /  6.4km/h 4.0mph /  6.4km/h 59% 0.00in /  0mm 0.00 W/m2
03:04 39.1 °F /  3.9 °C 26.0 °F /  -3.3 °C 29.87in /  1011.4hPa West 3.0mph /  4.8km/h 4.0mph /  6.4km/h 59% 0.00in /  0mm 0.00 W/m2
03:09 39.2 °F /  4 °C 26.5 °F /  -3.1 °C 29.87in /  1011.4hPa West 3.0mph /  4.8km/h 4.0mph /  6.4km/h 60% 0.00in /  0mm 0.00 W/m2
03:14 39.1 °F /  3.9 °C 26.4 °F /  -3.1 °C 29.87in /  1011.4hPa West 3.0mph /  4.8km/h 4.0mph /  6.4km/h 60% 0.00in /  0mm 0.00 W/m2
03:19 39.0 °F /  3.9 °C 26.3 °F /  -3.2 °C 29.87in /  1011.4hPa WNW 4.0mph /  6.4km/h 4.0mph /  6.4km/h 60% 0.00in /  0mm 0.00 W/m2
03:24 38.9 °F /  3.8 °C 26.6 °F /  -3 °C 29.87in /  1011.4hPa WNW 3.0mph /  4.8km/h 4.0mph /  6.4km/h 61% 0.00in /  0mm 0.00 W/m2
03:29 39.0 °F /  3.9 °C 26.7 °F /  -2.9 °C 29.87in /  1011.4hPa WNW 3.0mph /  4.8km/h 4.0mph /  6.4km/h 61% 0.00in /  0mm 0.00 W/m2
03:34 39.1 °F /  3.9 °C 26.8 °F /  -2.9 °C 29.87in /  1011.4hPa WNW 3.0mph /  4.8km/h 4.0mph /  6.4km/h 61% 0.00in /  0mm 0.00 W/m2
03:39 39.3 °F /  4.1 °C 26.6 °F /  -3 °C 29.87in /  1011.4hPa WNW 4.0mph /  6.4km/h 4.0mph /  6.4km/h 60% 0.00in /  0mm 0.00 W/m2
03:44 39.3 °F /  4.1 °C 26.6 °F /  -3 °C 29.87in /  1011.4hPa WNW 3.0mph /  4.8km/h 4.0mph /  6.4km/h 60% 0.00in /  0mm 0.00 W/m2
03:49 39.3 °F /  4.1 °C 26.6 °F /  -3 °C 29.87in /  1011.4hPa WNW 4.0mph /  6.4km/h 4.0mph /  6.4km/h 60% 0.00in /  0mm 0.00 W/m2
03:54 39.2 °F /  4 °C 26.9 °F /  -2.8 °C 29.87in /  1011.4hPa NW 4.0mph /  6.4km/h 4.0mph /  6.4km/h 61% 0.00in /  0mm 0.00 W/m2
03:59 39.0 °F /  3.9 °C 26.7 °F /  -2.9 °C 29.87in /  1011.4hPa NW 3.0mph /  4.8km/h 5.0mph /  8km/h 61% 0.00in /  0mm 0.00 W/m2
04:04 38.7 °F /  3.7 °C 26.8 °F /  -2.9 °C 29.87in /  1011.4hPa NW 3.0mph /  4.8km/h 5.0mph /  8km/h 62% 0.00in /  0mm 0.00 W/m2
04:09 38.5 °F /  3.6 °C 26.6 °F /  -3 °C 29.87in /  1011.4hPa NW 3.0mph /  4.8km/h 5.0mph /  8km/h 62% 0.00in /  0mm 0.00 W/m2
04:14 38.3 °F /  3.5 °C 26.8 °F /  -2.9 °C 29.87in /  1011.4hPa NNW 3.0mph /  4.8km/h 5.0mph /  8km/h 63% 0.00in /  0mm 0.00 W/m2
04:19 38.0 °F /  3.3 °C 26.5 °F /  -3.1 °C 29.87in /  1011.4hPa NNW 3.0mph /  4.8km/h 5.0mph /  8km/h 63% 0.00in /  0mm 0.00 W/m2
04:24 37.9 °F /  3.3 °C 26.8 °F /  -2.9 °C 29.86in /  1011.1hPa NNW 3.0mph /  4.8km/h 4.0mph /  6.4km/h 64% 0.00in /  0mm 0.00 W/m2
04:29 37.9 °F /  3.3 °C 26.8 °F /  -2.9 °C 29.87in /  1011.4hPa NNW 2.0mph /  3.2km/h 4.0mph /  6.4km/h 64% 0.00in /  0mm 0.00 W/m2
04:34 38.1 °F /  3.4 °C 26.6 °F /  -3 °C 29.86in /  1011.1hPa NNW 3.0mph /  4.8km/h 3.0mph /  4.8km/h 63% 0.00in /  0mm 0.00 W/m2
04:39 38.8 °F /  3.8 °C 26.9 °F /  -2.8 °C 29.86in /  1011.1hPa NW 3.0mph /  4.8km/h 3.0mph /  4.8km/h 62% 0.00in /  0mm 0.00 W/m2
04:44 39.3 °F /  4.1 °C 27.0 °F /  -2.8 °C 29.86in /  1011.1hPa NW 3.0mph /  4.8km/h 4.0mph /  6.4km/h 61% 0.00in /  0mm 0.00 W/m2
04:49 39.3 °F /  4.1 °C 27.0 °F /  -2.8 °C 29.86in /  1011.1hPa NW 3.0mph /  4.8km/h 5.0mph /  8km/h 61% 0.00in /  0mm 0.00 W/m2
04:54 39.2 °F /  4 °C 26.9 °F /  -2.8 °C 29.86in /  1011.1hPa NW 2.0mph /  3.2km/h 5.0mph /  8km/h 61% 0.00in /  0mm 0.00 W/m2
04:59 38.8 °F /  3.8 °C 26.9 °F /  -2.8 °C 29.86in /  1011.1hPa NW 2.0mph /  3.2km/h 4.0mph /  6.4km/h 62% 0.00in /  0mm 0.00 W/m2
05:04 38.3 °F /  3.5 °C 26.4 °F /  -3.1 °C 29.86in /  1011.1hPa NW 2.0mph /  3.2km/h 3.0mph /  4.8km/h 62% 0.00in /  0mm 0.00 W/m2
05:09 37.2 °F /  2.9 °C 25.8 °F /  -3.4 °C 29.86in /  1011.1hPa NW 1.0mph /  1.6km/h 3.0mph /  4.8km/h 63% 0.00in /  0mm 0.00 W/m2
05:14 36.3 °F /  2.4 °C 26.0 °F /  -3.3 °C 29.86in /  1011.1hPa NW 1.0mph /  1.6km/h 3.0mph /  4.8km/h 66% 0.00in /  0mm 0.00 W/m2
05:19 36.0 °F /  2.2 °C 26.1 °F /  -3.3 °C 29.86in /  1011.1hPa NW 1.0mph /  1.6km/h 2.0mph /  3.2km/h 67% 0.00in /  0mm 0.00 W/m2
05:24 35.7 °F /  2.1 °C 26.2 °F /  -3.2 °C 29.86in /  1011.1hPa NW 2.0mph /  3.2km/h 3.0mph /  4.8km/h 68% 0.00in /  0mm 0.00 W/m2
05:29 35.8 °F /  2.1 °C 26.3 °F /  -3.2 °C 29.86in /  1011.1hPa WNW 3.0mph /  4.8km/h 4.0mph /  6.4km/h 68% 0.00in /  0mm 0.00 W/m2
05:34 35.8 °F /  2.1 °C 26.3 °F /  -3.2 °C 29.86in /  1011.1hPa WNW 3.0mph /  4.8km/h 4.0mph /  6.4km/h 68% 0.00in /  0mm 0.00 W/m2
05:39 35.9 °F /  2.2 °C 26.4 °F /  -3.1 °C 29.86in /  1011.1hPa WNW 4.0mph /  6.4km/h 4.0mph /  6.4km/h 68% 0.00in /  0mm 0.00 W/m2
05:44 36.2 °F /  2.3 °C 26.6 °F /  -3 °C 29.86in /  1011.1hPa WNW 4.0mph /  6.4km/h 4.0mph /  6.4km/h 68% 0.00in /  0mm 0.00 W/m2
05:49 36.4 °F /  2.4 °C 26.5 °F /  -3.1 °C 29.86in /  1011.1hPa WNW 3.0mph /  4.8km/h 4.0mph /  6.4km/h 67% 0.00in /  0mm 0.00 W/m2
05:54 36.4 °F /  2.4 °C 26.8 °F /  -2.9 °C 29.85in /  1010.7hPa NNW 3.0mph /  4.8km/h 4.0mph /  6.4km/h 68% 0.00in /  0mm 0.00 W/m2
05:59 36.3 °F /  2.4 °C 27.1 °F /  -2.7 °C 29.86in /  1011.1hPa North 4.0mph /  6.4km/h 4.0mph /  6.4km/h 69% 0.00in /  0mm 0.00 W/m2
06:04 36.2 °F /  2.3 °C 27.0 °F /  -2.8 °C 29.86in /  1011.1hPa North 4.0mph /  6.4km/h 4.0mph /  6.4km/h 69% 0.00in /  0mm 0.00 W/m2
06:09 36.3 °F /  2.4 °C 27.1 °F /  -2.7 °C 29.86in /  1011.1hPa North 4.0mph /  6.4km/h 4.0mph /  6.4km/h 69% 0.00in /  0mm 0.00 W/m2
06:14 36.3 °F /  2.4 °C 27.1 °F /  -2.7 °C 29.86in /  1011.1hPa North 3.0mph /  4.8km/h 4.0mph /  6.4km/h 69% 0.00in /  0mm 0.00 W/m2
06:19 36.2 °F /  2.3 °C 27.4 °F /  -2.6 °C 29.87in /  1011.4hPa North 4.0mph /  6.4km/h 6.0mph /  9.7km/h 70% 0.00in /  0mm 0.00 W/m2
06:24 36.2 °F /  2.3 °C 27.4 °F /  -2.6 °C 29.87in /  1011.4hPa North 4.0mph /  6.4km/h 6.0mph /  9.7km/h 70% 0.00in /  0mm 0.00 W/m2
06:29 36.3 °F /  2.4 °C 27.4 °F /  -2.6 °C 29.87in /  1011.4hPa NNE 3.0mph /  4.8km/h 7.0mph /  11.3km/h 70% 0.00in /  0mm 0.00 W/m2
06:34 36.4 °F /  2.4 °C 27.5 °F /  -2.5 °C 29.87in /  1011.4hPa NNE 5.0mph /  8km/h 7.0mph /  11.3km/h 70% 0.00in /  0mm 0.00 W/m2
06:39 36.6 °F /  2.6 °C 27.7 °F /  -2.4 °C 29.87in /  1011.4hPa NE 6.0mph /  9.7km/h 8.0mph /  12.9km/h 70% 0.00in /  0mm 0.00 W/m2
06:44 36.9 °F /  2.7 °C 27.7 °F /  -2.4 °C 29.87in /  1011.4hPa NE 4.0mph /  6.4km/h 9.0mph /  14.5km/h 69% 0.00in /  0mm 0.00 W/m2
06:49 37.1 °F /  2.8 °C 27.9 °F /  -2.3 °C 29.87in /  1011.4hPa NE 5.0mph /  8km/h 9.0mph /  14.5km/h 69% 0.00in /  0mm 0.00 W/m2
06:54 36.8 °F /  2.7 °C 27.6 °F /  -2.4 °C 29.87in /  1011.4hPa East 5.0mph /  8km/h 6.0mph /  9.7km/h 69% 0.00in /  0mm 0.00 W/m2
06:59 36.2 °F /  2.3 °C 27.4 °F /  -2.6 °C 29.87in /  1011.4hPa East 5.0mph /  8km/h 8.0mph /  12.9km/h 70% 0.00in /  0mm 5.00 W/m2
07:04 36.0 °F /  2.2 °C 27.5 °F /  -2.5 °C 29.87in /  1011.4hPa NE 6.0mph /  9.7km/h 8.0mph /  12.9km/h 71% 0.00in /  0mm 7.00 W/m2
07:09 36.1 °F /  2.3 °C 27.6 °F /  -2.4 °C 29.87in /  1011.4hPa ENE 7.0mph /  11.3km/h 10.0mph /  16.1km/h 71% 0.00in /  0mm 5.00 W/m2
07:14 36.4 °F /  2.4 °C 27.9 °F /  -2.3 °C 29.87in /  1011.4hPa East 3.0mph /  4.8km/h 10.0mph /  16.1km/h 71% 0.00in /  0mm 5.00 W/m2
07:19 36.1 °F /  2.3 °C 27.6 °F /  -2.4 °C 29.87in /  1011.4hPa East 3.0mph /  4.8km/h 8.0mph /  12.9km/h 71% 0.00in /  0mm 7.00 W/m2
07:24 35.7 °F /  2.1 °C 27.6 °F /  -2.4 °C 29.87in /  1011.4hPa East 2.0mph /  3.2km/h 6.0mph /  9.7km/h 72% 0.00in /  0mm 11.00 W/m2
07:29 35.5 °F /  1.9 °C 27.7 °F /  -2.4 °C 29.87in /  1011.4hPa ESE 3.0mph /  4.8km/h 5.0mph /  8km/h 73% 0.00in /  0mm 14.00 W/m2
07:34 35.3 °F /  1.8 °C 27.8 °F /  -2.3 °C 29.87in /  1011.4hPa SE 4.0mph /  6.4km/h 5.0mph /  8km/h 74% 0.00in /  0mm 23.00 W/m2
07:39 35.1 °F /  1.7 °C 28.0 °F /  -2.2 °C 29.87in /  1011.4hPa East 5.0mph /  8km/h 7.0mph /  11.3km/h 75% 0.00in /  0mm 33.00 W/m2
07:44 35.4 °F /  1.9 °C 28.3 °F /  -2.1 °C 29.87in /  1011.4hPa East 2.0mph /  3.2km/h 7.0mph /  11.3km/h 75% 0.00in /  0mm 33.00 W/m2
07:49 35.6 °F /  2 °C 28.1 °F /  -2.2 °C 29.87in /  1011.4hPa East 3.0mph /  4.8km/h 5.0mph /  8km/h 74% 0.00in /  0mm 35.00 W/m2
07:54 35.8 °F /  2.1 °C 28.3 °F /  -2.1 °C 29.87in /  1011.4hPa East 3.0mph /  4.8km/h 5.0mph /  8km/h 74% 0.00in /  0mm 42.00 W/m2
07:59 36.0 °F /  2.2 °C 28.5 °F /  -1.9 °C 29.87in /  1011.4hPa East 3.0mph /  4.8km/h 6.0mph /  9.7km/h 74% 0.00in /  0mm 33.00 W/m2
08:04 36.4 °F /  2.4 °C 28.9 °F /  -1.7 °C 29.88in /  1011.7hPa East 2.0mph /  3.2km/h 6.0mph /  9.7km/h 74% 0.00in /  0mm 49.00 W/m2
08:09 36.6 °F /  2.6 °C 29.4 °F /  -1.4 °C 29.88in /  1011.7hPa East 1.0mph /  1.6km/h 6.0mph /  9.7km/h 75% 0.00in /  0mm 62.00 W/m2
08:14 36.8 °F /  2.7 °C 29.6 °F /  -1.3 °C 29.88in /  1011.7hPa East 2.0mph /  3.2km/h 3.0mph /  4.8km/h 75% 0.00in /  0mm 70.00 W/m2
08:19 37.0 °F /  2.8 °C 29.5 °F /  -1.4 °C 29.88in /  1011.7hPa NE 6.0mph /  9.7km/h 7.0mph /  11.3km/h 74% 0.00in /  0mm 62.00 W/m2
08:24 37.3 °F /  2.9 °C 29.8 °F /  -1.2 °C 29.88in /  1011.7hPa NE 5.0mph /  8km/h 9.0mph /  14.5km/h 74% 0.00in /  0mm 63.00 W/m2
08:29 38.0 °F /  3.3 °C 30.1 °F /  -1.1 °C 29.89in /  1012.1hPa NE 7.0mph /  11.3km/h 10.0mph /  16.1km/h 73% 0.00in /  0mm 65.00 W/m2
08:34 38.6 °F /  3.7 °C 30.4 °F /  -0.9 °C 29.89in /  1012.1hPa NE 6.0mph /  9.7km/h 12.0mph /  19.3km/h 72% 0.00in /  0mm 81.00 W/m2
08:39 38.7 °F /  3.7 °C 30.1 °F /  -1.1 °C 29.89in /  1012.1hPa ENE 12.0mph /  19.3km/h 14.0mph /  22.5km/h 71% 0.00in /  0mm 98.00 W/m2
08:44 38.7 °F /  3.7 °C 30.1 °F /  -1.1 °C 29.89in /  1012.1hPa East 10.0mph /  16.1km/h 14.0mph /  22.5km/h 71% 0.00in /  0mm 109.00 W/m2
08:49 38.5 °F /  3.6 °C 30.3 °F /  -0.9 °C 29.89in /  1012.1hPa ENE 12.0mph /  19.3km/h 14.0mph /  22.5km/h 72% 0.00in /  0mm 135.00 W/m2
08:54 38.5 °F /  3.6 °C 30.6 °F /  -0.8 °C 29.89in /  1012.1hPa ENE 13.0mph /  20.9km/h 16.0mph /  25.7km/h 73% 0.00in /  0mm 153.00 W/m2
08:59 38.5 °F /  3.6 °C 30.6 °F /  -0.8 °C 29.90in /  1012.4hPa ENE 7.0mph /  11.3km/h 16.0mph /  25.7km/h 73% 0.00in /  0mm 162.00 W/m2
09:04 38.2 °F /  3.4 °C 30.3 °F /  -0.9 °C 29.90in /  1012.4hPa NE 11.0mph /  17.7km/h 17.0mph /  27.4km/h 73% 0.00in /  0mm 127.00 W/m2
09:09 37.9 °F /  3.3 °C 30.4 °F /  -0.9 °C 29.90in /  1012.4hPa ENE 13.0mph /  20.9km/h 19.0mph /  30.6km/h 74% 0.00in /  0mm 148.00 W/m2
09:14 37.4 °F /  3 °C 30.2 °F /  -1 °C 29.90in /  1012.4hPa ENE 15.0mph /  24.1km/h 21.0mph /  33.8km/h 75% 0.00in /  0mm 141.00 W/m2
09:19 37.0 °F /  2.8 °C 30.5 °F /  -0.8 °C 29.90in /  1012.4hPa ENE 8.0mph /  12.9km/h 21.0mph /  33.8km/h 77% 0.00in /  0mm 163.00 W/m2
09:24 36.7 °F /  2.6 °C 30.8 °F /  -0.7 °C 29.90in /  1012.4hPa NE 9.0mph /  14.5km/h 18.0mph /  29km/h 79% 0.00in /  0mm 190.00 W/m2
09:29 36.5 °F /  2.5 °C 31.2 °F /  -0.4 °C 29.90in /  1012.4hPa ENE 17.0mph /  27.4km/h 18.0mph /  29km/h 81% 0.00in /  0mm 186.00 W/m2
09:34 36.3 °F /  2.4 °C 31.3 °F /  -0.4 °C 29.90in /  1012.4hPa ENE 8.0mph /  12.9km/h 18.0mph /  29km/h 82% 0.00in /  0mm 183.00 W/m2
09:39 35.9 °F /  2.2 °C 30.9 °F /  -0.6 °C 29.91in /  1012.8hPa ENE 12.0mph /  19.3km/h 18.0mph /  29km/h 82% 0.00in /  0mm 213.00 W/m2
09:44 35.4 °F /  1.9 °C 30.8 °F /  -0.7 °C 29.91in /  1012.8hPa ENE 12.0mph /  19.3km/h 16.0mph /  25.7km/h 83% 0.00in /  0mm 186.00 W/m2
09:49 34.5 °F /  1.4 °C 30.2 °F /  -1 °C 29.91in /  1012.8hPa ENE 12.0mph /  19.3km/h 16.0mph /  25.7km/h 84% 0.00in /  0mm 162.00 W/m2
09:54 34.2 °F /  1.2 °C 30.2 °F /  -1 °C 29.91in /  1012.8hPa ENE 11.0mph /  17.7km/h 17.0mph /  27.4km/h 85% 0.00in /  0mm 202.00 W/m2
09:59 34.2 °F /  1.2 °C 30.4 °F /  -0.9 °C 29.91in /  1012.8hPa NE 8.0mph /  12.9km/h 17.0mph /  27.4km/h 86% 0.00in /  0mm 227.00 W/m2
10:04 34.3 °F /  1.3 °C 30.8 °F /  -0.7 °C 29.92in /  1013.1hPa ENE 10.0mph /  16.1km/h 17.0mph /  27.4km/h 87% 0.00in /  0mm 192.00 W/m2
10:09 34.2 °F /  1.2 °C 30.7 °F /  -0.7 °C 29.92in /  1013.1hPa ENE 15.0mph /  24.1km/h 17.0mph /  27.4km/h 87% 0.00in /  0mm 153.00 W/m2
10:14 34.1 °F /  1.2 °C 30.6 °F /  -0.8 °C 29.92in /  1013.1hPa ENE 12.0mph /  19.3km/h 17.0mph /  27.4km/h 87% 0.00in /  0mm 128.00 W/m2
10:19 33.9 °F /  1.1 °C 30.7 °F /  -0.7 °C 29.92in /  1013.1hPa ENE 13.0mph /  20.9km/h 17.0mph /  27.4km/h 88% 0.00in /  0mm 146.00 W/m2
10:24 33.7 °F /  0.9 °C 30.5 °F /  -0.8 °C 29.92in /  1013.1hPa ENE 12.0mph /  19.3km/h 20.0mph /  32.2km/h 88% 0.00in /  0mm 146.00 W/m2
10:29 33.7 °F /  0.9 °C 30.8 °F /  -0.7 °C 29.92in /  1013.1hPa ENE 14.0mph /  22.5km/h 20.0mph /  32.2km/h 89% 0.00in /  0mm 167.00 W/m2
10:34 33.8 °F /  1 °C 30.9 °F /  -0.6 °C 29.92in /  1013.1hPa East 14.0mph /  22.5km/h 19.0mph /  30.6km/h 89% 0.00in /  0mm 167.00 W/m2
10:39 33.8 °F /  1 °C 30.9 °F /  -0.6 °C 29.92in /  1013.1hPa ENE 12.0mph /  19.3km/h 19.0mph /  30.6km/h 89% 0.00in /  0mm 142.00 W/m2
10:44 34.0 °F /  1.1 °C 31.1 °F /  -0.5 °C 29.93in /  1013.4hPa East 10.0mph /  16.1km/h 18.0mph /  29km/h 89% 0.00in /  0mm 162.00 W/m2
10:49 34.3 °F /  1.3 °C 31.4 °F /  -0.3 °C 29.93in /  1013.4hPa ENE 11.0mph /  17.7km/h 20.0mph /  32.2km/h 89% 0.00in /  0mm 179.00 W/m2
10:54 34.3 °F /  1.3 °C 31.4 °F /  -0.3 °C 29.93in /  1013.4hPa ENE 10.0mph /  16.1km/h 20.0mph /  32.2km/h 89% 0.00in /  0mm 190.00 W/m2
10:59 34.6 °F /  1.4 °C 31.7 °F /  -0.2 °C 29.93in /  1013.4hPa ENE 10.0mph /  16.1km/h 17.0mph /  27.4km/h 89% 0.00in /  0mm 248.00 W/m2
11:04 34.7 °F /  1.5 °C 31.8 °F /  -0.1 °C 29.93in /  1013.4hPa ENE 12.0mph /  19.3km/h 22.0mph /  35.4km/h 89% 0.00in /  0mm 302.00 W/m2
11:09 35.1 °F /  1.7 °C 32.2 °F /  0.1 °C 29.93in /  1013.4hPa East 17.0mph /  27.4km/h 22.0mph /  35.4km/h 89% 0.00in /  0mm 279.00 W/m2
11:14 35.4 °F /  1.9 °C 32.2 °F /  0.1 °C 29.93in /  1013.4hPa East 20.0mph /  32.2km/h 20.0mph /  32.2km/h 88% 0.00in /  0mm 299.00 W/m2
11:19 35.4 °F /  1.9 °C 31.9 °F /  -0.1 °C 29.93in /  1013.4hPa ENE 13.0mph /  20.9km/h 24.0mph /  38.6km/h 87% 0.00in /  0mm 279.00 W/m2
11:24 35.3 °F /  1.8 °C 31.8 °F /  -0.1 °C 29.93in /  1013.4hPa ENE 15.0mph /  24.1km/h 24.0mph /  38.6km/h 87% 0.00in /  0mm 258.00 W/m2
11:29 35.5 °F /  1.9 °C 32.3 °F /  0.2 °C 29.93in /  1013.4hPa ENE 12.0mph /  19.3km/h 21.0mph /  33.8km/h 88% 0.00in /  0mm 318.00 W/m2
11:34 35.6 °F /  2 °C 32.1 °F /  0.1 °C 29.93in /  1013.4hPa ENE 15.0mph /  24.1km/h 24.0mph /  38.6km/h 87% 0.00in /  0mm 332.00 W/m2
11:39 35.7 °F /  2.1 °C 31.9 °F /  -0.1 °C 29.93in /  1013.4hPa NE 11.0mph /  17.7km/h 24.0mph /  38.6km/h 86% 0.00in /  0mm 332.00 W/m2
11:44 36.0 °F /  2.2 °C 32.2 °F /  0.1 °C 29.92in /  1013.1hPa ENE 11.0mph /  17.7km/h 22.0mph /  35.4km/h 86% 0.00in /  0mm 287.00 W/m2
11:49 36.2 °F /  2.3 °C 32.4 °F /  0.2 °C 29.92in /  1013.1hPa ENE 10.0mph /  16.1km/h 20.0mph /  32.2km/h 86% 0.00in /  0mm 311.00 W/m2
11:54 35.8 °F /  2.1 °C 31.7 °F /  -0.2 °C 29.92in /  1013.1hPa East 17.0mph /  27.4km/h 23.0mph /  37km/h 85% 0.00in /  0mm 316.00 W/m2
11:59 36.0 °F /  2.2 °C 32.2 °F /  0.1 °C 29.92in /  1013.1hPa East 16.0mph /  25.7km/h 23.0mph /  37km/h 86% 0.00in /  0mm 359.00 W/m2
12:04 35.9 °F /  2.2 °C 31.8 °F /  -0.1 °C 29.93in /  1013.4hPa ENE 15.0mph /  24.1km/h 24.0mph /  38.6km/h 85% 0.00in /  0mm 374.00 W/m2
12:09 36.1 °F /  2.3 °C 32.0 °F /  0 °C 29.93in /  1013.4hPa ENE 18.0mph /  29km/h 24.0mph /  38.6km/h 85% 0.00in /  0mm 410.00 W/m2
12:14 36.1 °F /  2.3 °C 32.0 °F /  0 °C 29.93in /  1013.4hPa ENE 10.0mph /  16.1km/h 24.0mph /  38.6km/h 85% 0.00in /  0mm 348.00 W/m2
12:19 36.4 °F /  2.4 °C 32.3 °F /  0.2 °C 29.93in /  1013.4hPa NE 13.0mph /  20.9km/h 22.0mph /  35.4km/h 85% 0.00in /  0mm 367.00 W/m2
12:24 36.5 °F /  2.5 °C 32.1 °F /  0.1 °C 29.93in /  1013.4hPa ENE 15.0mph /  24.1km/h 22.0mph /  35.4km/h 84% 0.00in /  0mm 360.00 W/m2
12:29 36.6 °F /  2.6 °C 32.2 °F /  0.1 °C 29.93in /  1013.4hPa NE 18.0mph /  29km/h 22.0mph /  35.4km/h 84% 0.00in /  0mm 309.00 W/m2
12:34 36.5 °F /  2.5 °C 31.8 °F /  -0.1 °C 29.93in /  1013.4hPa ENE 11.0mph /  17.7km/h 21.0mph /  33.8km/h 83% 0.00in /  0mm 292.00 W/m2
12:39 36.2 °F /  2.3 °C 31.5 °F /  -0.3 °C 29.93in /  1013.4hPa NE 11.0mph /  17.7km/h 21.0mph /  33.8km/h 83% 0.00in /  0mm 278.00 W/m2
12:44 36.1 °F /  2.3 °C 31.7 °F /  -0.2 °C 29.93in /  1013.4hPa ENE 14.0mph /  22.5km/h 21.0mph /  33.8km/h 84% 0.00in /  0mm 267.00 W/m2
12:49 35.7 °F /  2.1 °C 31.0 °F /  -0.6 °C 29.93in /  1013.4hPa ENE 15.0mph /  24.1km/h 23.0mph /  37km/h 83% 0.00in /  0mm 251.00 W/m2
12:54 35.6 °F /  2 °C 31.2 °F /  -0.4 °C 29.93in /  1013.4hPa ENE 10.0mph /  16.1km/h 23.0mph /  37km/h 84% 0.00in /  0mm 244.00 W/m2
12:59 35.6 °F /  2 °C 31.2 °F /  -0.4 °C 29.93in /  1013.4hPa ENE 11.0mph /  17.7km/h 21.0mph /  33.8km/h 84% 0.00in /  0mm 253.00 W/m2
13:04 35.7 °F /  2.1 °C 31.3 °F /  -0.4 °C 29.93in /  1013.4hPa ENE 16.0mph /  25.7km/h 21.0mph /  33.8km/h 84% 0.00in /  0mm 267.00 W/m2
13:09 35.6 °F /  2 °C 30.9 °F /  -0.6 °C 29.94in /  1013.8hPa ENE 13.0mph /  20.9km/h 20.0mph /  32.2km/h 83% 0.00in /  0mm 279.00 W/m2
13:14 35.2 °F /  1.8 °C 30.6 °F /  -0.8 °C 29.94in /  1013.8hPa East 16.0mph /  25.7km/h 19.0mph /  30.6km/h 83% 0.00in /  0mm 313.00 W/m2
13:19 35.5 °F /  1.9 °C 31.1 °F /  -0.5 °C 29.94in /  1013.8hPa ENE 14.0mph /  22.5km/h 22.0mph /  35.4km/h 84% 0.00in /  0mm 348.00 W/m2
13:24 35.4 °F /  1.9 °C 30.8 °F /  -0.7 °C 29.94in /  1013.8hPa East 14.0mph /  22.5km/h 22.0mph /  35.4km/h 83% 0.00in /  0mm 445.00 W/m2
13:29 35.8 °F /  2.1 °C 31.4 °F /  -0.3 °C 29.94in /  1013.8hPa NE 11.0mph /  17.7km/h 22.0mph /  35.4km/h 84% 0.00in /  0mm 439.00 W/m2
13:34 36.2 °F /  2.3 °C 31.2 °F /  -0.4 °C 29.95in /  1014.1hPa ENE 9.0mph /  14.5km/h 20.0mph /  32.2km/h 82% 0.00in /  0mm 476.00 W/m2
13:39 36.2 °F /  2.3 °C 30.9 °F /  -0.6 °C 29.94in /  1013.8hPa East 17.0mph /  27.4km/h 20.0mph /  32.2km/h 81% 0.00in /  0mm 654.00 W/m2
13:44 36.9 °F /  2.7 °C 31.9 °F /  -0.1 °C 29.94in /  1013.8hPa ENE 10.0mph /  16.1km/h 21.0mph /  33.8km/h 82% 0.00in /  0mm 671.00 W/m2
13:49 36.7 °F /  2.6 °C 30.8 °F /  -0.7 °C 29.93in /  1013.4hPa ENE 19.0mph /  30.6km/h 22.0mph /  35.4km/h 79% 0.00in /  0mm 689.00 W/m2
13:54 37.2 °F /  2.9 °C 31.6 °F /  -0.2 °C 29.93in /  1013.4hPa ENE 17.0mph /  27.4km/h 22.0mph /  35.4km/h 80% 0.00in /  0mm 682.00 W/m2
13:59 37.8 °F /  3.2 °C 31.2 °F /  -0.4 °C 29.94in /  1013.8hPa ENE 15.0mph /  24.1km/h 22.0mph /  35.4km/h 77% 0.00in /  0mm 800.00 W/m2
14:04 37.9 °F /  3.3 °C 31.7 °F /  -0.2 °C 29.93in /  1013.4hPa East 16.0mph /  25.7km/h 22.0mph /  35.4km/h 78% 0.00in /  0mm 494.00 W/m2
14:09 38.4 °F /  3.6 °C 31.5 °F /  -0.3 °C 29.93in /  1013.4hPa East 15.0mph /  24.1km/h 21.0mph /  33.8km/h 76% 0.00in /  0mm 450.00 W/m2
14:14 37.8 °F /  3.2 °C 30.6 °F /  -0.8 °C 29.93in /  1013.4hPa NE 11.0mph /  17.7km/h 21.0mph /  33.8km/h 75% 0.00in /  0mm 452.00 W/m2
14:19 37.9 °F /  3.3 °C 31.0 °F /  -0.6 °C 29.93in /  1013.4hPa ENE 15.0mph /  24.1km/h 21.0mph /  33.8km/h 76% 0.00in /  0mm 510.00 W/m2
14:24 38.2 °F /  3.4 °C 31.3 °F /  -0.4 °C 29.93in /  1013.4hPa ENE 17.0mph /  27.4km/h 21.0mph /  33.8km/h 76% 0.00in /  0mm 541.00 W/m2
14:29 38.1 °F /  3.4 °C 31.2 °F /  -0.4 °C 29.93in /  1013.4hPa ENE 14.0mph /  22.5km/h 20.0mph /  32.2km/h 76% 0.00in /  0mm 454.00 W/m2
14:34 37.9 °F /  3.3 °C 31.0 °F /  -0.6 °C 29.93in /  1013.4hPa ENE 15.0mph /  24.1km/h 21.0mph /  33.8km/h 76% 0.00in /  0mm 536.00 W/m2
14:39 38.2 °F /  3.4 °C 31.3 °F /  -0.4 °C 29.93in /  1013.4hPa East 10.0mph /  16.1km/h 22.0mph /  35.4km/h 76% 0.00in /  0mm 482.00 W/m2
14:44 38.3 °F /  3.5 °C 31.4 °F /  -0.3 °C 29.93in /  1013.4hPa East 7.0mph /  11.3km/h 22.0mph /  35.4km/h 76% 0.00in /  0mm 490.00 W/m2
14:49 38.5 °F /  3.6 °C 31.6 °F /  -0.2 °C 29.93in /  1013.4hPa East 11.0mph /  17.7km/h 22.0mph /  35.4km/h 76% 0.00in /  0mm 548.00 W/m2
14:54 38.8 °F /  3.8 °C 31.6 °F /  -0.2 °C 29.93in /  1013.4hPa ENE 11.0mph /  17.7km/h 22.0mph /  35.4km/h 75% 0.00in /  0mm 483.00 W/m2
14:59 38.7 °F /  3.7 °C 31.5 °F /  -0.3 °C 29.93in /  1013.4hPa ESE 17.0mph /  27.4km/h 21.0mph /  33.8km/h 75% 0.00in /  0mm 457.00 W/m2
15:04 38.4 °F /  3.6 °C 30.5 °F /  -0.8 °C 29.93in /  1013.4hPa East 16.0mph /  25.7km/h 19.0mph /  30.6km/h 73% 0.00in /  0mm 452.00 W/m2
15:09 38.5 °F /  3.6 °C 30.9 °F /  -0.6 °C 29.93in /  1013.4hPa East 15.0mph /  24.1km/h 21.0mph /  33.8km/h 74% 0.00in /  0mm 471.00 W/m2
15:14 38.7 °F /  3.7 °C 31.1 °F /  -0.5 °C 29.93in /  1013.4hPa East 13.0mph /  20.9km/h 23.0mph /  37km/h 74% 0.00in /  0mm 436.00 W/m2
15:19 38.8 °F /  3.8 °C 31.2 °F /  -0.4 °C 29.93in /  1013.4hPa East 9.0mph /  14.5km/h 23.0mph /  37km/h 74% 0.00in /  0mm 434.00 W/m2
15:24 38.4 °F /  3.6 °C 30.8 °F /  -0.7 °C 29.93in /  1013.4hPa East 15.0mph /  24.1km/h 21.0mph /  33.8km/h 74% 0.00in /  0mm 343.00 W/m2
15:29 38.6 °F /  3.7 °C 31.4 °F /  -0.3 °C 29.93in /  1013.4hPa East 9.0mph /  14.5km/h 21.0mph /  33.8km/h 75% 0.00in /  0mm 367.00 W/m2
15:34 38.4 °F /  3.6 °C 30.5 °F /  -0.8 °C 29.93in /  1013.4hPa ENE 14.0mph /  22.5km/h 21.0mph /  33.8km/h 73% 0.00in /  0mm 371.00 W/m2
15:39 38.0 °F /  3.3 °C 30.1 °F /  -1.1 °C 29.93in /  1013.4hPa ENE 18.0mph /  29km/h 24.0mph /  38.6km/h 73% 0.00in /  0mm 432.00 W/m2
15:44 38.1 °F /  3.4 °C 30.5 °F /  -0.8 °C 29.93in /  1013.4hPa ENE 9.0mph /  14.5km/h 24.0mph /  38.6km/h 74% 0.00in /  0mm 313.00 W/m2
15:49 38.4 °F /  3.6 °C 30.5 °F /  -0.8 °C 29.93in /  1013.4hPa ENE 11.0mph /  17.7km/h 23.0mph /  37km/h 73% 0.00in /  0mm 338.00 W/m2
15:54 38.2 °F /  3.4 °C 30.6 °F /  -0.8 °C 29.93in /  1013.4hPa East 14.0mph /  22.5km/h 23.0mph /  37km/h 74% 0.00in /  0mm 292.00 W/m2
15:59 38.3 °F /  3.5 °C 31.1 °F /  -0.5 °C 29.93in /  1013.4hPa ESE 9.0mph /  14.5km/h 22.0mph /  35.4km/h 75% 0.00in /  0mm 301.00 W/m2
16:04 38.6 °F /  3.7 °C 31.0 °F /  -0.6 °C 29.93in /  1013.4hPa ENE 16.0mph /  25.7km/h 22.0mph /  35.4km/h 74% 0.00in /  0mm 313.00 W/m2
16:09 37.8 °F /  3.2 °C 30.3 °F /  -0.9 °C 29.93in /  1013.4hPa ENE 13.0mph /  20.9km/h 20.0mph /  32.2km/h 74% 0.00in /  0mm 339.00 W/m2
16:14 37.9 °F /  3.3 °C 30.7 °F /  -0.7 °C 29.93in /  1013.4hPa East 13.0mph /  20.9km/h 22.0mph /  35.4km/h 75% 0.00in /  0mm 346.00 W/m2
16:19 37.8 °F /  3.2 °C 30.3 °F /  -0.9 °C 29.93in /  1013.4hPa East 7.0mph /  11.3km/h 22.0mph /  35.4km/h 74% 0.00in /  0mm 403.00 W/m2
16:24 38.3 °F /  3.5 °C 30.7 °F /  -0.7 °C 29.93in /  1013.4hPa ENE 13.0mph /  20.9km/h 21.0mph /  33.8km/h 74% 0.00in /  0mm 355.00 W/m2
16:29 38.4 °F /  3.6 °C 30.5 °F /  -0.8 °C 29.93in /  1013.4hPa East 13.0mph /  20.9km/h 18.0mph /  29km/h 73% 0.00in /  0mm 287.00 W/m2
16:34 38.2 °F /  3.4 °C 30.3 °F /  -0.9 °C 29.94in /  1013.8hPa East 14.0mph /  22.5km/h 18.0mph /  29km/h 73% 0.00in /  0mm 220.00 W/m2
16:39 38.0 °F /  3.3 °C 30.1 °F /  -1.1 °C 29.94in /  1013.8hPa East 7.0mph /  11.3km/h 18.0mph /  29km/h 73% 0.00in /  0mm 186.00 W/m2
16:44 37.9 °F /  3.3 °C 30.0 °F /  -1.1 °C 29.94in /  1013.8hPa East 8.0mph /  12.9km/h 18.0mph /  29km/h 73% 0.00in /  0mm 199.00 W/m2
16:49 37.8 °F /  3.2 °C 30.3 °F /  -0.9 °C 29.94in /  1013.8hPa ENE 9.0mph /  14.5km/h 18.0mph /  29km/h 74% 0.00in /  0mm 220.00 W/m2
16:54 37.8 °F /  3.2 °C 30.3 °F /  -0.9 °C 29.94in /  1013.8hPa East 6.0mph /  9.7km/h 17.0mph /  27.4km/h 74% 0.00in /  0mm 227.00 W/m2
16:59 37.9 °F /  3.3 °C 30.0 °F /  -1.1 °C 29.94in /  1013.8hPa East 13.0mph /  20.9km/h 19.0mph /  30.6km/h 73% 0.00in /  0mm 221.00 W/m2
17:04 37.7 °F /  3.2 °C 30.2 °F /  -1 °C 29.94in /  1013.8hPa East 11.0mph /  17.7km/h 19.0mph /  30.6km/h 74% 0.00in /  0mm 225.00 W/m2
17:09 37.8 °F /  3.2 °C 29.9 °F /  -1.2 °C 29.94in /  1013.8hPa ENE 11.0mph /  17.7km/h 19.0mph /  30.6km/h 73% 0.00in /  0mm 243.00 W/m2
17:14 37.5 °F /  3.1 °C 30.0 °F /  -1.1 °C 29.94in /  1013.8hPa ENE 11.0mph /  17.7km/h 18.0mph /  29km/h 74% 0.00in /  0mm 234.00 W/m2
17:19 37.6 °F /  3.1 °C 29.7 °F /  -1.3 °C 29.94in /  1013.8hPa ENE 11.0mph /  17.7km/h 18.0mph /  29km/h 73% 0.00in /  0mm 216.00 W/m2
17:24 37.9 °F /  3.3 °C 30.4 °F /  -0.9 °C 29.94in /  1013.8hPa ENE 11.0mph /  17.7km/h 18.0mph /  29km/h 74% 0.00in /  0mm 251.00 W/m2
17:29 37.8 °F /  3.2 °C 29.9 °F /  -1.2 °C 29.95in /  1014.1hPa ENE 11.0mph /  17.7km/h 18.0mph /  29km/h 73% 0.00in /  0mm 257.00 W/m2
17:34 37.8 °F /  3.2 °C 29.6 °F /  -1.3 °C 29.95in /  1014.1hPa ENE 11.0mph /  17.7km/h 18.0mph /  29km/h 72% 0.00in /  0mm 250.00 W/m2
17:39 38.0 °F /  3.3 °C 29.8 °F /  -1.2 °C 29.95in /  1014.1hPa ENE 11.0mph /  17.7km/h 18.0mph /  29km/h 72% 0.00in /  0mm 250.00 W/m2
17:44 38.1 °F /  3.4 °C 29.9 °F /  -1.2 °C 29.95in /  1014.1hPa ENE 11.0mph /  17.7km/h 18.0mph /  29km/h 72% 0.00in /  0mm 209.00 W/m2
17:49 37.8 °F /  3.2 °C 29.6 °F /  -1.3 °C 29.95in /  1014.1hPa ENE 11.0mph /  17.7km/h 18.0mph /  29km/h 72% 0.00in /  0mm 179.00 W/m2
17:54 38.1 °F /  3.4 °C 29.9 °F /  -1.2 °C 29.95in /  1014.1hPa ENE 11.0mph /  17.7km/h 18.0mph /  29km/h 72% 0.00in /  0mm 163.00 W/m2
17:59 38.0 °F /  3.3 °C 29.8 °F /  -1.2 °C 29.95in /  1014.1hPa ENE 11.0mph /  17.7km/h 18.0mph /  29km/h 72% 0.00in /  0mm 142.00 W/m2
18:04 38.0 °F /  3.3 °C 29.4 °F /  -1.4 °C 29.95in /  1014.1hPa ENE 11.0mph /  17.7km/h 18.0mph /  29km/h 71% 0.00in /  0mm 134.00 W/m2
18:09 38.0 °F /  3.3 °C 29.4 °F /  -1.4 °C 29.95in /  1014.1hPa ENE 11.0mph /  17.7km/h 18.0mph /  29km/h 71% 0.00in /  0mm 127.00 W/m2
18:14 38.0 °F /  3.3 °C 29.4 °F /  -1.4 °C 29.95in /  1014.1hPa ENE 11.0mph /  17.7km/h 18.0mph /  29km/h 71% 0.00in /  0mm 114.00 W/m2
18:19 38.0 °F /  3.3 °C 29.4 °F /  -1.4 °C 29.96in /  1014.4hPa ENE 11.0mph /  17.7km/h 18.0mph /  29km/h 71% 0.00in /  0mm 109.00 W/m2
18:24 37.8 °F /  3.2 °C 29.2 °F /  -1.6 °C 29.96in /  1014.4hPa ENE 11.0mph /  17.7km/h 18.0mph /  29km/h 71% 0.00in /  0mm 83.00 W/m2
18:29 37.6 °F /  3.1 °C 29.0 °F /  -1.7 °C 29.96in /  1014.4hPa ENE 11.0mph /  17.7km/h 18.0mph /  29km/h 71% 0.00in /  0mm 67.00 W/m2
18:34 37.5 °F /  3.1 °C 29.3 °F /  -1.5 °C 29.96in /  1014.4hPa ENE 11.0mph /  17.7km/h 18.0mph /  29km/h 72% 0.00in /  0mm 67.00 W/m2
18:39 37.4 °F /  3 °C 28.9 °F /  -1.7 °C 29.96in /  1014.4hPa ENE 11.0mph /  17.7km/h 18.0mph /  29km/h 71% 0.00in /  0mm 65.00 W/m2
18:44 37.4 °F /  3 °C 28.9 °F /  -1.7 °C 29.96in /  1014.4hPa ENE 11.0mph /  17.7km/h 18.0mph /  29km/h 71% 0.00in /  0mm 63.00 W/m2
18:49 37.5 °F /  3.1 °C 28.9 °F /  -1.7 °C 29.96in /  1014.4hPa ENE 11.0mph /  17.7km/h 18.0mph /  29km/h 71% 0.00in /  0mm 63.00 W/m2
18:54 37.7 °F /  3.2 °C 28.8 °F /  -1.8 °C 29.96in /  1014.4hPa ENE 11.0mph /  17.7km/h 18.0mph /  29km/h 70% 0.00in /  0mm 46.00 W/m2
18:59 37.6 °F /  3.1 °C 28.3 °F /  -2.1 °C 29.96in /  1014.4hPa ENE 11.0mph /  17.7km/h 18.0mph /  29km/h 69% 0.00in /  0mm 44.00 W/m2
19:04 37.4 °F /  3 °C 28.2 °F /  -2.1 °C 29.96in /  1014.4hPa ENE 11.0mph /  17.7km/h 18.0mph /  29km/h 69% 0.00in /  0mm 40.00 W/m2
19:09 37.2 °F /  2.9 °C 28.0 °F /  -2.2 °C 29.97in /  1014.8hPa ENE 11.0mph /  17.7km/h 18.0mph /  29km/h 69% 0.00in /  0mm 35.00 W/m2
19:14 37.0 °F /  2.8 °C 28.1 °F /  -2.2 °C 29.97in /  1014.8hPa ENE 11.0mph /  17.7km/h 18.0mph /  29km/h 70% 0.00in /  0mm 30.00 W/m2
19:19 36.8 °F /  2.7 °C 27.9 °F /  -2.3 °C 29.97in /  1014.8hPa ENE 11.0mph /  17.7km/h 18.0mph /  29km/h 70% 0.00in /  0mm 25.00 W/m2
19:24 36.4 °F /  2.4 °C 27.5 °F /  -2.5 °C 29.97in /  1014.8hPa ENE 11.0mph /  17.7km/h 18.0mph /  29km/h 70% 0.00in /  0mm 23.00 W/m2
19:29 36.2 °F /  2.3 °C 27.7 °F /  -2.4 °C 29.97in /  1014.8hPa ENE 11.0mph /  17.7km/h 18.0mph /  29km/h 71% 0.00in /  0mm 21.00 W/m2
19:34 35.9 °F /  2.2 °C 27.4 °F /  -2.6 °C 29.97in /  1014.8hPa ENE 11.0mph /  17.7km/h 18.0mph /  29km/h 71% 0.00in /  0mm 21.00 W/m2
19:39 35.8 °F /  2.1 °C 27.7 °F /  -2.4 °C 29.97in /  1014.8hPa ENE 11.0mph /  17.7km/h 18.0mph /  29km/h 72% 0.00in /  0mm 16.00 W/m2
19:44 35.6 °F /  2 °C 27.5 °F /  -2.5 °C 29.97in /  1014.8hPa ENE 11.0mph /  17.7km/h 18.0mph /  29km/h 72% 0.00in /  0mm 14.00 W/m2
19:49 35.4 °F /  1.9 °C 27.3 °F /  -2.6 °C 29.98in /  1015.1hPa ENE 11.0mph /  17.7km/h 18.0mph /  29km/h 72% 0.00in /  0mm 14.00 W/m2
19:54 35.1 °F /  1.7 °C 27.0 °F /  -2.8 °C 29.98in /  1015.1hPa ENE 11.0mph /  17.7km/h 18.0mph /  29km/h 72% 0.00in /  0mm 9.00 W/m2
19:59 34.7 °F /  1.5 °C 26.6 °F /  -3 °C 29.98in /  1015.1hPa NE 9.0mph /  14.5km/h 19.0mph /  30.6km/h 72% 0.00in /  0mm 7.00 W/m2
20:04 34.5 °F /  1.4 °C 26.7 °F /  -2.9 °C 29.98in /  1015.1hPa ENE 12.0mph /  19.3km/h 19.0mph /  30.6km/h 73% 0.00in /  0mm 5.00 W/m2
20:09 34.2 °F /  1.2 °C 26.4 °F /  -3.1 °C 29.98in /  1015.1hPa ENE 16.0mph /  25.7km/h 21.0mph /  33.8km/h 73% 0.00in /  0mm 5.00 W/m2
20:14 33.9 °F /  1.1 °C 26.2 °F /  -3.2 °C 29.99in /  1015.5hPa East 10.0mph /  16.1km/h 21.0mph /  33.8km/h 73% 0.00in /  0mm 5.00 W/m2
20:19 33.8 °F /  1 °C 26.1 °F /  -3.3 °C 29.99in /  1015.5hPa ENE 13.0mph /  20.9km/h 18.0mph /  29km/h 73% 0.00in /  0mm 0.00 W/m2
20:24 33.6 °F /  0.9 °C 26.2 °F /  -3.2 °C 29.99in /  1015.5hPa ENE 16.0mph /  25.7km/h 17.0mph /  27.4km/h 74% 0.00in /  0mm 0.00 W/m2
20:29 33.4 °F /  0.8 °C 26.0 °F /  -3.3 °C 29.99in /  1015.5hPa ENE 12.0mph /  19.3km/h 19.0mph /  30.6km/h 74% 0.00in /  0mm 0.00 W/m2
20:34 33.2 °F /  0.7 °C 25.8 °F /  -3.4 °C 30.00in /  1015.8hPa NE 9.0mph /  14.5km/h 19.0mph /  30.6km/h 74% 0.00in /  0mm 0.00 W/m2
20:39 33.0 °F /  0.6 °C 25.6 °F /  -3.6 °C 30.00in /  1015.8hPa ENE 7.0mph /  11.3km/h 20.0mph /  32.2km/h 74% 0.00in /  0mm 0.00 W/m2
20:44 33.0 °F /  0.6 °C 25.9 °F /  -3.4 °C 30.00in /  1015.8hPa ENE 10.0mph /  16.1km/h 20.0mph /  32.2km/h 75% 0.00in /  0mm 0.00 W/m2
20:49 32.9 °F /  0.5 °C 25.8 °F /  -3.4 °C 30.01in /  1016.1hPa ENE 8.0mph /  12.9km/h 15.0mph /  24.1km/h 75% 0.00in /  0mm 0.00 W/m2
20:54 32.7 °F /  0.4 °C 25.6 °F /  -3.6 °C 30.01in /  1016.1hPa East 11.0mph /  17.7km/h 16.0mph /  25.7km/h 75% 0.00in /  0mm 0.00 W/m2
20:59 32.6 °F /  0.3 °C 25.6 °F /  -3.6 °C 30.01in /  1016.1hPa ENE 5.0mph /  8km/h 16.0mph /  25.7km/h 75% 0.00in /  0mm 0.00 W/m2
21:04 32.4 °F /  0.2 °C 25.4 °F /  -3.7 °C 30.01in /  1016.1hPa ENE 9.0mph /  14.5km/h 15.0mph /  24.1km/h 75% 0.00in /  0mm 0.00 W/m2
21:09 32.3 °F /  0.2 °C 25.6 °F /  -3.6 °C 30.01in /  1016.1hPa ENE 13.0mph /  20.9km/h 15.0mph /  24.1km/h 76% 0.00in /  0mm 0.00 W/m2
21:14 32.2 °F /  0.1 °C 25.5 °F /  -3.6 °C 30.01in /  1016.1hPa ENE 15.0mph /  24.1km/h 15.0mph /  24.1km/h 76% 0.00in /  0mm 0.00 W/m2
21:19 32.1 °F /  0.1 °C 25.4 °F /  -3.7 °C 30.01in /  1016.1hPa NE 6.0mph /  9.7km/h 15.0mph /  24.1km/h 76% 0.00in /  0mm 0.00 W/m2
21:24 32.0 °F /  0 °C 25.3 °F /  -3.7 °C 30.01in /  1016.1hPa ENE 14.0mph /  22.5km/h 15.0mph /  24.1km/h 76% 0.00in /  0mm 0.00 W/m2
21:29 31.9 °F /  -0.1 °C 25.2 °F /  -3.8 °C 30.01in /  1016.1hPa ENE 9.0mph /  14.5km/h 16.0mph /  25.7km/h 76% 0.00in /  0mm 0.00 W/m2
21:34 31.7 °F /  -0.2 °C 25.0 °F /  -3.9 °C 30.01in /  1016.1hPa ENE 11.0mph /  17.7km/h 16.0mph /  25.7km/h 76% 0.00in /  0mm 0.00 W/m2
21:39 31.5 °F /  -0.3 °C 25.1 °F /  -3.8 °C 30.01in /  1016.1hPa NE 13.0mph /  20.9km/h 15.0mph /  24.1km/h 77% 0.00in /  0mm 0.00 W/m2
21:44 31.3 °F /  -0.4 °C 24.9 °F /  -3.9 °C 30.02in /  1016.5hPa ENE 16.0mph /  25.7km/h 19.0mph /  30.6km/h 77% 0.00in /  0mm 0.00 W/m2
21:49 31.0 °F /  -0.6 °C 24.6 °F /  -4.1 °C 30.02in /  1016.5hPa NE 7.0mph /  11.3km/h 19.0mph /  30.6km/h 77% 0.00in /  0mm 0.00 W/m2
21:54 30.7 °F /  -0.7 °C 24.3 °F /  -4.3 °C 30.02in /  1016.5hPa NE 10.0mph /  16.1km/h 16.0mph /  25.7km/h 77% 0.00in /  0mm 0.00 W/m2
21:59 30.6 °F /  -0.8 °C 24.6 °F /  -4.1 °C 30.02in /  1016.5hPa ENE 12.0mph /  19.3km/h 16.0mph /  25.7km/h 78% 0.00in /  0mm 0.00 W/m2
22:04 30.5 °F /  -0.8 °C 24.5 °F /  -4.2 °C 30.03in /  1016.8hPa ENE 5.0mph /  8km/h 16.0mph /  25.7km/h 78% 0.00in /  0mm 0.00 W/m2
22:09 30.4 °F /  -0.9 °C 24.4 °F /  -4.2 °C 30.03in /  1016.8hPa ENE 4.0mph /  6.4km/h 15.0mph /  24.1km/h 78% 0.00in /  0mm 0.00 W/m2
22:14 30.3 °F /  -0.9 °C 24.0 °F /  -4.4 °C 30.03in /  1016.8hPa ENE 9.0mph /  14.5km/h 14.0mph /  22.5km/h 77% 0.00in /  0mm 0.00 W/m2
22:19 30.3 °F /  -0.9 °C 24.0 °F /  -4.4 °C 30.03in /  1016.8hPa ENE 8.0mph /  12.9km/h 15.0mph /  24.1km/h 77% 0.00in /  0mm 0.00 W/m2
22:24 30.3 °F /  -0.9 °C 24.3 °F /  -4.3 °C 30.03in /  1016.8hPa ENE 12.0mph /  19.3km/h 16.0mph /  25.7km/h 78% 0.00in /  0mm 0.00 W/m2
22:29 30.2 °F /  -1 °C 24.2 °F /  -4.3 °C 30.03in /  1016.8hPa ENE 8.0mph /  12.9km/h 16.0mph /  25.7km/h 78% 0.00in /  0mm 0.00 W/m2
22:34 30.1 °F /  -1.1 °C 24.1 °F /  -4.4 °C 30.03in /  1016.8hPa ENE 11.0mph /  17.7km/h 15.0mph /  24.1km/h 78% 0.00in /  0mm 0.00 W/m2
22:39 30.0 °F /  -1.1 °C 24.0 °F /  -4.4 °C 30.03in /  1016.8hPa ENE 8.0mph /  12.9km/h 15.0mph /  24.1km/h 78% 0.00in /  0mm 0.00 W/m2
22:44 29.8 °F /  -1.2 °C 23.8 °F /  -4.6 °C 30.03in /  1016.8hPa ENE 9.0mph /  14.5km/h 19.0mph /  30.6km/h 78% 0.00in /  0mm 0.00 W/m2
22:49 29.7 °F /  -1.3 °C 23.7 °F /  -4.6 °C 30.03in /  1016.8hPa ENE 18.0mph /  29km/h 20.0mph /  32.2km/h 78% 0.00in /  0mm 0.00 W/m2
22:54 29.5 °F /  -1.4 °C 23.5 °F /  -4.7 °C 30.04in /  1017.2hPa NE 7.0mph /  11.3km/h 20.0mph /  32.2km/h 78% 0.00in /  0mm 0.00 W/m2
22:59 29.4 °F /  -1.4 °C 23.4 °F /  -4.8 °C 30.04in /  1017.2hPa ENE 13.0mph /  20.9km/h 19.0mph /  30.6km/h 78% 0.00in /  0mm 0.00 W/m2
23:04 29.3 °F /  -1.5 °C 23.3 °F /  -4.8 °C 30.04in /  1017.2hPa NE 12.0mph /  19.3km/h 18.0mph /  29km/h 78% 0.00in /  0mm 0.00 W/m2
23:09 29.2 °F /  -1.6 °C 23.2 °F /  -4.9 °C 30.04in /  1017.2hPa ENE 13.0mph /  20.9km/h 18.0mph /  29km/h 78% 0.00in /  0mm 0.00 W/m2
23:14 29.1 °F /  -1.6 °C 23.4 °F /  -4.8 °C 30.04in /  1017.2hPa NE 12.0mph /  19.3km/h 18.0mph /  29km/h 79% 0.00in /  0mm 0.00 W/m2
23:19 28.9 °F /  -1.7 °C 23.2 °F /  -4.9 °C 30.04in /  1017.2hPa ENE 13.0mph /  20.9km/h 18.0mph /  29km/h 79% 0.00in /  0mm 0.00 W/m2
23:24 28.7 °F /  -1.8 °C 23.0 °F /  -5 °C 30.04in /  1017.2hPa NE 12.0mph /  19.3km/h 19.0mph /  30.6km/h 79% 0.00in /  0mm 0.00 W/m2
23:29 28.5 °F /  -1.9 °C 23.1 °F /  -4.9 °C 30.04in /  1017.2hPa ENE 16.0mph /  25.7km/h 19.0mph /  30.6km/h 80% 0.00in /  0mm 0.00 W/m2
23:34 28.4 °F /  -2 °C 23.0 °F /  -5 °C 30.04in /  1017.2hPa ENE 16.0mph /  25.7km/h 21.0mph /  33.8km/h 80% 0.00in /  0mm 0.00 W/m2
23:39 28.3 °F /  -2.1 °C 22.9 °F /  -5.1 °C 30.04in /  1017.2hPa ENE 9.0mph /  14.5km/h 21.0mph /  33.8km/h 80% 0.00in /  0mm 0.00 W/m2
23:44 28.1 °F /  -2.2 °C 23.0 °F /  -5 °C 30.05in /  1017.5hPa ENE 16.0mph /  25.7km/h 18.0mph /  29km/h 81% 0.00in /  0mm 0.00 W/m2
23:49 28.0 °F /  -2.2 °C 22.9 °F /  -5.1 °C 30.05in /  1017.5hPa NE 12.0mph /  19.3km/h 18.0mph /  29km/h 81% 0.00in /  0mm 0.00 W/m2
23:54 27.8 °F /  -2.3 °C 22.7 °F /  -5.2 °C 30.04in /  1017.2hPa ENE 12.0mph /  19.3km/h 20.0mph /  32.2km/h 81% 0.00in /  0mm 0.00 W/m2
23:59 27.6 °F /  -2.4 °C 22.5 °F /  -5.3 °C 30.04in /  1017.2hPa NE 17.0mph /  27.4km/h 20.0mph /  32.2km/h 81% 0.00in /  0mm 0.00 W/m2
Bismarck, North Dakota, USA
Compliments of Weather Underground - 4 mb